createdAt,value
2019-05-22T00:04:18.982Z,87.84
2019-05-22T00:09:23.968Z,87.94
2019-05-22T00:14:28.202Z,87.81
2019-05-22T00:19:31.765Z,88.11
2019-05-22T00:24:37.119Z,88.08
2019-05-22T00:29:43.167Z,87.76
2019-05-22T00:34:49.218Z,87.93
2019-05-22T00:39:54.384Z,88.09
2019-05-22T00:44:58.959Z,88.06
2019-05-22T00:50:04.131Z,88.38
2019-05-22T00:55:09.193Z,88.65
2019-05-22T01:00:16.283Z,88.95
2019-05-22T01:05:21.802Z,88.62
2019-05-22T01:10:26.771Z,88.80
2019-05-22T01:15:31.876Z,88.51
2019-05-22T01:20:37.030Z,88.28
2019-05-22T01:25:42.030Z,88.27
2019-05-22T01:31:03.475Z,88.45
2019-05-22T01:36:08.814Z,88.43
2019-05-22T01:41:32.679Z,88.58
2019-05-22T01:46:39.517Z,88.37
2019-05-22T01:51:44.680Z,88.43
2019-05-22T01:56:49.622Z,88.23
2019-05-22T02:01:53.321Z,88.41
2019-05-22T02:06:57.145Z,88.24
2019-05-22T02:12:04.935Z,88.05
2019-05-22T02:17:08.843Z,87.69
2019-05-22T02:22:13.124Z,87.56
2019-05-22T02:27:18.512Z,87.66
2019-05-22T02:32:23.498Z,88.09
2019-05-22T02:37:27.138Z,88.01
2019-05-22T02:42:31.034Z,87.94
2019-05-22T02:47:34.797Z,87.85
2019-05-22T02:52:38.150Z,87.96
2019-05-22T02:57:42.153Z,88.01
2019-05-22T03:02:57.720Z,87.90
2019-05-22T03:08:01.427Z,87.64
2019-05-22T03:13:06.325Z,87.48
2019-05-22T03:18:10.459Z,87.33
2019-05-22T03:23:22.571Z,87.61
2019-05-22T03:28:27.069Z,87.34
2019-05-22T03:33:30.810Z,87.50
2019-05-22T03:38:34.571Z,87.27
2019-05-22T03:43:37.919Z,87.46
2019-05-22T03:48:41.651Z,88.01
2019-05-22T03:53:46.452Z,88.44
2019-05-22T03:58:51.065Z,89.04
2019-05-22T04:03:55.844Z,89.66
2019-05-22T04:09:04.088Z,90.07
2019-05-22T04:14:07.450Z,90.15
2019-05-22T04:19:10.901Z,90.02
2019-05-22T04:24:15.577Z,90.30
2019-05-22T04:29:19.555Z,90.28
2019-05-22T04:34:23.444Z,90.33
2019-05-22T04:39:27.550Z,90.22
2019-05-22T04:44:31.008Z,90.05
2019-05-22T04:49:34.638Z,90.12
2019-05-22T04:54:38.186Z,89.74
2019-05-22T04:59:41.529Z,89.37
2019-05-22T05:04:45.200Z,89.35
2019-05-22T05:09:48.704Z,88.22
2019-05-22T05:14:52.500Z,87.81
2019-05-22T05:19:55.866Z,87.32
2019-05-22T05:24:59.332Z,86.82
2019-05-22T05:30:03.037Z,86.81
2019-05-22T05:35:10.273Z,86.84
2019-05-22T05:40:38.613Z,86.47
2019-05-22T05:45:43.286Z,85.55
2019-05-22T05:51:09.546Z,85.44
2019-05-22T05:56:14.802Z,84.75
2019-05-22T06:01:24.127Z,84.75
2019-05-22T06:06:33.632Z,84.10
2019-05-22T06:11:53.005Z,83.40
2019-05-22T06:17:31.689Z,83.79
2019-05-22T06:22:35.075Z,83.46
2019-05-22T06:27:42.739Z,82.32
2019-05-22T06:33:08.950Z,82.38
2019-05-22T06:38:35.162Z,81.63
2019-05-22T06:43:41.675Z,81.54
2019-05-22T06:48:45.650Z,81.54
2019-05-22T06:53:49.174Z,81.42
2019-05-22T06:58:52.564Z,80.58
2019-05-22T07:03:55.985Z,80.37
2019-05-22T07:08:59.316Z,80.11
2019-05-22T07:14:03.049Z,79.25
2019-05-22T07:19:07.579Z,79.11
2019-05-22T07:24:11.244Z,79.68
2019-05-22T07:29:15.026Z,79.72
2019-05-22T07:34:18.576Z,79.17
2019-05-22T07:39:22.087Z,79.03
2019-05-22T07:44:25.542Z,78.75
2019-05-22T07:49:29.229Z,76.39
2019-05-22T07:54:33.170Z,76.55
2019-05-22T07:59:37.160Z,76.38
2019-05-22T08:04:41.969Z,76.30
2019-05-22T08:09:45.696Z,75.79
2019-05-22T08:14:49.992Z,74.09
2019-05-22T08:19:53.495Z,74.86
2019-05-22T08:24:56.989Z,73.86
2019-05-22T08:30:00.429Z,73.34
2019-05-22T08:35:09.171Z,74.71
2019-05-22T08:40:14.166Z,74.60
2019-05-22T08:45:18.807Z,73.98
2019-05-22T08:50:23.823Z,74.66
2019-05-22T08:55:27.338Z,75.30
2019-05-22T09:00:30.927Z,74.26
2019-05-22T09:05:34.401Z,74.38
2019-05-22T09:10:37.788Z,74.04
2019-05-22T09:15:41.498Z,74.28
2019-05-22T09:20:49.406Z,74.75
2019-05-22T09:25:50.424Z,74.82
2019-05-22T09:30:54.078Z,75.32
2019-05-22T09:35:57.882Z,75.06
2019-05-22T09:41:03.362Z,75.44
2019-05-22T09:46:08.403Z,75.58
2019-05-22T09:51:11.807Z,76.39
2019-05-22T09:56:15.436Z,76.04
2019-05-22T10:01:19.490Z,76.57
2019-05-22T10:06:22.999Z,77.45
2019-05-22T10:11:27.442Z,77.47
2019-05-22T10:16:31.007Z,77.23
2019-05-22T10:21:34.692Z,78.67
2019-05-22T10:26:38.166Z,77.88
2019-05-22T10:31:41.788Z,77.99
2019-05-22T10:36:45.209Z,77.04
2019-05-22T10:41:48.560Z,75.79
2019-05-22T10:46:52.366Z,75.95
2019-05-22T10:51:55.809Z,75.96
2019-05-22T10:56:59.334Z,75.32
2019-05-22T11:02:03.310Z,75.38
2019-05-22T11:07:07.871Z,74.65
2019-05-22T11:12:12.236Z,74.42
2019-05-22T11:17:17.072Z,72.95
2019-05-22T11:22:20.494Z,72.57
2019-05-22T11:27:24.140Z,71.85
2019-05-22T11:32:27.564Z,70.36
2019-05-22T11:37:31.080Z,69.33
2019-05-22T11:42:34.863Z,69.99
2019-05-22T11:47:39.179Z,70.69
2019-05-22T11:52:42.668Z,69.18
2019-05-22T11:57:47.918Z,69.13
2019-05-22T12:02:53.006Z,68.69
2019-05-22T12:07:56.965Z,67.66
2019-05-22T12:13:00.469Z,65.49
2019-05-22T12:18:05.000Z,65.03
2019-05-22T12:23:08.417Z,64.39
2019-05-22T12:28:12.117Z,64.52
2019-05-22T12:33:15.519Z,66.87
2019-05-22T12:38:21.832Z,68.26
2019-05-22T12:43:26.543Z,67.93
2019-05-22T12:48:30.338Z,70.35
2019-05-22T12:53:34.202Z,70.60
2019-05-22T12:58:40.103Z,71.28
2019-05-22T13:03:44.401Z,71.95
2019-05-22T13:08:47.745Z,72.86
2019-05-22T13:13:51.283Z,73.16
2019-05-22T13:18:54.947Z,73.60
2019-05-22T13:24:00.672Z,74.63
2019-05-22T13:29:07.129Z,75.43
2019-05-22T13:34:12.820Z,74.93
2019-05-22T13:39:16.986Z,75.74
2019-05-22T13:44:21.276Z,74.18
2019-05-22T13:49:26.612Z,73.50
2019-05-22T13:54:31.207Z,73.12
2019-05-22T13:59:35.192Z,72.41
2019-05-22T14:04:38.924Z,71.48
2019-05-22T14:09:43.189Z,71.32
2019-05-22T14:14:46.704Z,70.92
2019-05-22T14:19:50.136Z,69.82
2019-05-22T14:24:53.627Z,70.23
2019-05-22T14:29:57.494Z,69.40
2019-05-22T14:35:01.177Z,69.59
2019-05-22T14:40:08.135Z,68.73
2019-05-22T14:45:11.895Z,69.28
2019-05-22T14:50:15.409Z,69.20
2019-05-22T14:55:18.765Z,69.33
2019-05-22T15:00:24.567Z,68.34
2019-05-22T15:05:28.196Z,67.73
2019-05-22T15:10:32.029Z,67.76
2019-05-22T15:15:40.154Z,66.76
2019-05-22T15:20:42.684Z,67.00
2019-05-22T15:25:46.152Z,66.85
2019-05-22T15:30:49.664Z,66.41
2019-05-22T15:35:54.209Z,66.65
2019-05-22T15:40:57.654Z,67.19
2019-05-22T15:46:01.395Z,67.27
2019-05-22T15:51:09.083Z,67.02
2019-05-22T15:56:12.494Z,67.53
2019-05-22T16:01:17.737Z,67.50
2019-05-22T16:06:23.493Z,67.85
2019-05-22T16:11:27.551Z,68.48
2019-05-22T16:16:32.246Z,67.86
2019-05-22T16:21:38.566Z,67.65
2019-05-22T16:26:42.627Z,67.86
2019-05-22T16:31:46.595Z,67.11
2019-05-22T16:36:50.234Z,68.28
2019-05-22T16:41:54.197Z,67.55
2019-05-22T16:46:58.989Z,68.25
2019-05-22T16:52:04.149Z,67.74
2019-05-22T16:57:08.624Z,67.82
2019-05-22T17:02:14.082Z,68.57
2019-05-22T17:07:18.300Z,68.69
2019-05-22T17:12:23.329Z,68.99
2019-05-22T17:17:26.751Z,68.53
2019-05-22T17:22:30.114Z,68.99
2019-05-22T17:27:33.578Z,69.05
2019-05-22T17:32:38.094Z,69.50
2019-05-22T17:37:42.351Z,69.69
2019-05-22T17:42:46.178Z,69.79
2019-05-22T17:47:51.339Z,70.28
2019-05-22T17:52:55.275Z,70.44
2019-05-22T17:57:59.623Z,70.77
2019-05-22T18:03:03.207Z,71.12
2019-05-22T18:08:07.222Z,71.50
2019-05-22T18:13:12.148Z,71.27
2019-05-22T18:18:15.879Z,71.51
2019-05-22T18:23:19.233Z,72.17
2019-05-22T18:28:22.980Z,72.22
2019-05-22T18:33:26.425Z,72.60
2019-05-22T18:38:29.817Z,72.70
2019-05-22T18:43:33.730Z,73.22
2019-05-22T18:48:37.165Z,73.40
2019-05-22T18:53:40.521Z,73.99
2019-05-22T18:58:44.157Z,73.87
2019-05-22T19:03:47.704Z,74.18
2019-05-22T19:08:52.245Z,74.16
2019-05-22T19:13:55.663Z,74.33
2019-05-22T19:18:59.012Z,74.46
2019-05-22T19:24:02.472Z,74.99
2019-05-22T19:29:06.071Z,74.89
2019-05-22T19:34:11.035Z,75.41
2019-05-22T19:39:14.683Z,76.29
2019-05-22T19:44:18.321Z,75.43
2019-05-22T19:49:23.724Z,74.65
2019-05-22T19:54:27.380Z,74.18
2019-05-22T19:59:32.281Z,73.79
2019-05-22T20:04:36.275Z,73.79
2019-05-22T20:09:40.144Z,73.74
2019-05-22T20:14:43.704Z,73.86
2019-05-22T20:19:47.255Z,74.07
2019-05-22T20:24:51.098Z,73.97
2019-05-22T20:29:55.077Z,74.06
2019-05-22T20:34:59.322Z,73.91
2019-05-22T20:40:04.025Z,73.13
2019-05-22T20:45:09.651Z,72.56
2019-05-22T20:50:13.962Z,72.41
2019-05-22T20:55:19.468Z,72.22
2019-05-22T21:00:25.775Z,72.39
2019-05-22T21:05:29.372Z,72.59
2019-05-22T21:10:33.454Z,72.55
2019-05-22T21:15:36.995Z,72.63
2019-05-22T21:20:54.195Z,72.62
2019-05-22T21:25:48.150Z,72.91
2019-05-22T21:30:54.119Z,73.21
2019-05-22T21:35:57.635Z,73.89
2019-05-22T21:41:01.313Z,74.46
2019-05-22T21:46:05.610Z,74.77
2019-05-22T21:51:09.987Z,74.91
2019-05-22T21:56:13.548Z,74.94
2019-05-22T22:01:21.221Z,74.86
2019-05-22T22:06:24.926Z,74.90
2019-05-22T22:11:28.835Z,75.14
2019-05-22T22:16:32.261Z,74.53
2019-05-22T22:21:37.615Z,74.55
2019-05-22T22:26:41.719Z,74.70
2019-05-22T22:31:46.341Z,74.96
2019-05-22T22:36:50.266Z,76.55
2019-05-22T22:41:55.836Z,76.96
2019-05-22T22:47:01.244Z,78.44
2019-05-22T22:52:07.724Z,78.92
2019-05-22T22:57:11.898Z,78.73
2019-05-22T23:02:17.316Z,79.21
2019-05-22T23:07:22.135Z,79.14
2019-05-22T23:12:26.083Z,78.70
2019-05-22T23:17:31.059Z,80.19
2019-05-22T23:22:34.613Z,81.31
2019-05-22T23:27:39.082Z,81.50
2019-05-22T23:32:43.152Z,79.93
2019-05-22T23:37:46.484Z,80.37
2019-05-22T23:42:50.497Z,80.23
2019-05-22T23:47:59.851Z,82.13
2019-05-22T23:53:04.140Z,82.22
2019-05-22T23:58:10.027Z,80.91
